x

South Brooks (46132) Wave Buoy

12:00 - Fri 27th Feb 2015 All times are PST. -8 hours from GMT.

  • Sig Wave height 7.9ft
  • Peak Period 10s
  • Wind
    20mph, 25mph gusts
  • Sea Temp 51°f
  • Ar Temp 49°f
  • Sea Pressure 1011mb
  • South Brooks
  • South Brooks

More Historic Weather Station data

Upgrade to MSW Pro to gain access to the past 30 days of data for over 8000 Wavebouys and Weather Stations around the globe.

Join Pro

Comparision Forecast

View Surf forecast
   
Sex 02/27 12:00 8ft 10s 20 25 mph 1011mb 51f 49f
11:00 7.5ft 12s 20 25 mph 1010.9mb 51f 48f
10:00 7.5ft 9s 22 27 mph 1010.5mb 51f 49f
9:00 7ft 8s 22 27 mph 1010.1mb 51f 48f
8:00 7ft 8s 22 25 mph 1009.7mb 51f 48f
7:00 8ft 8s 22 27 mph 1009.7mb 51f 48f
6:00 8ft 8s 22 27 mph 1009.7mb 51f 49f
5:00 8.5ft 8s 25 29 mph 1009.7mb 51f 49f
4:00 8ft 11s 25 29 mph 1009.6mb 51f 49f
3:00 7ft 11s 20 22 mph 1009.9mb 51f 49f
2:00 7ft 9s 16 20 mph 1009.8mb 50f 49f
1:00 6ft 11s 11 13 mph 1010.3mb 50f 49f
12:00 6.5ft 10s 11 13 mph 1010.6mb 50f 49f
Qui 02/26 11:00 6ft 11s 9
mph
1010.5mb 50f 49f
10:00 6ft 11s 11 13 mph 1010.3mb 50f 49f
9:00 6.5ft 10s 16 18 mph 1010.2mb 50f 48f
8:00 7ft 11s 11 13 mph 1010.1mb 51f 49f
7:00 7ft 12s 18 22 mph 1010.5mb 51f 49f
6:00 7ft 12s 18 20 mph 1011mb 51f 49f
5:00 6.5ft 11s 16 20 mph 1011.6mb 51f 49f
4:00 6ft 11s 16 18 mph 1012.3mb 51f 49f
3:00 6ft 11s 11 18 mph 1012.8mb 51f 49f
2:00 6ft 11s 13 16 mph 1013.6mb 51f 49f
1:00 5.5ft 11s 13 16 mph 1014.7mb 51f 49f
12:00 5.5ft 10s 13 16 mph 1016mb 50f 50f
11:00 5.5ft 10s 16 18 mph 1016.6mb 50f 49f
10:00 6ft 12s 13 16 mph 1017.5mb 50f 49f
9:00 6.5ft 10s 11
mph
1018.3mb 50f 48f
8:00 6.5ft 12s 11 13 mph 1018.6mb 50f 49f
7:00 6.5ft 11s 7 9 mph 1019.5mb 50f 48f
6:00 7ft 10s 9 11 mph 1019.9mb 50f 48f
5:00 6ft 11s 11 13 mph 1020.6mb 50f 49f
4:00 5ft 11s 9 11 mph 1021.3mb 50f 49f
3:00 4.5ft 11s 7 9 mph 1021.7mb 50f 49f
2:00 4.5ft 11s 4
mph
1022.8mb 50f 49f
1:00 4.5ft 11s 2 4 mph 1023.2mb 51f 49f
12:00 4.5ft 12s 2 4 mph 1023.4mb 51f 49f
Qua 02/25 11:00 4ft 12s 7 9 mph 1023.9mb 51f 49f
10:00 4ft 12s 9 11 mph 1024.4mb 51f 49f
9:00 4.5ft 11s 11 13 mph 1024.3mb 51f 49f
8:00 4.5ft 11s 11 13 mph 1024.2mb 51f 49f
7:00 4.5ft 11s 13 16 mph 1024.1mb 50f 49f
6:00 4.5ft 11s 13 16 mph 1024.1mb 50f 48f
5:00 4.5ft 12s 16 18 mph 1024.5mb 51f 48f
4:00 4.5ft 9s 13 18 mph 1025.3mb 51f 47f
3:00 4.5ft 10s 13 18 mph 1025.9mb 50f 47f
2:00 4ft 10s 13 16 mph 1026.3mb 50f 47f
1:00 4ft 10s 11 13 mph 1027.3mb 50f 47f
12:00 4ft 10s 11
mph
1028.1mb 50f 47f
11:00 4.5ft 10s 9 11 mph 1028.5mb 50f 47f
10:00 4.5ft 10s 9 11 mph 1029mb 50f 49f
9:00 4.5ft 11s 2 4 mph 1028.8mb 50f 48f
8:00 5ft 7s  -  mph 1028.5mb 50f 48f
7:00 5.5ft 10s 7
mph
1028.8mb 50f 47f
6:00 5.5ft 9s 9 11 mph 1029.3mb 51f 48f
5:00 5.5ft 11s 11 13 mph 1029.4mb 51f 48f
4:00 5ft 11s 11 16 mph 1029.3mb 51f 48f
3:00 5.5ft 11s 11 16 mph 1028.9mb 51f 47f
2:00 6ft 10s 16 18 mph 1029.4mb 51f 47f
1:00 5.5ft 10s 16 20 mph 1029.5mb 51f 47f
12:00 5ft 11s 16 18 mph 1029.2mb 51f 47f
Ter 02/24 11:00 5ft 12s 13 16 mph 1028.9mb 51f 47f
10:00 5ft 11s 13 16 mph 1028.9mb 51f 48f
9:00 5ft 11s 11 13 mph 1028.7mb 51f 48f
8:00 6ft 10s 11 13 mph 1028.6mb 51f 48f
7:00 6ft 11s 9 11 mph 1028.2mb 51f 49f
6:00 6ft 12s 9 11 mph 1028.2mb 51f 48f
5:00 6.5ft 12s 9 11 mph 1028.1mb 51f 49f
4:00 6ft 12s 9 11 mph 1028.2mb 51f 49f
3:00 6ft 12s 2 4 mph 1027.9mb 51f 49f
2:00 5.5ft 13s 4 7 mph 1028mb 51f 48f
1:00 6ft 12s 9 11 mph 1028mb 51f 50f
12:00 5ft 12s 13
mph
1028.4mb 51f 50f
11:00 5.5ft 13s 13 16 mph 1028.6mb 51f 49f
10:00 5ft 12s 11 13 mph 1028.8mb 51f 48f
9:00 5ft 12s 9 13 mph 1028.6mb 51f 49f
8:00 5ft 13s 9 11 mph 1028.5mb 51f 49f
7:00 5ft 11s 11 13 mph 1028.2mb 50f 50f
6:00 6ft 13s 9 11 mph 1028.4mb 50f 50f
5:00 5.5ft 14s 11 13 mph 1028.7mb 50f 50f
4:00 6ft 13s 7 9 mph 1028.7mb 50f 50f
3:00 6ft 12s 9
mph
1029.4mb 50f 50f
2:00 6ft 13s 9 11 mph 1029.5mb 50f 49f
1:00 6ft 12s 9 11 mph 1029.7mb 50f 49f
12:00 5.5ft 14s 9 11 mph 1030mb 50f 49f
Seg 02/23 11:00 5ft 14s 9 11 mph 1030.2mb 50f 49f
10:00 5.5ft 14s 9
mph
1030.5mb 50f 49f